sensor_id;sensor_type;location;lat;lon;timestamp;pressure;altitude;pressure_sealevel;temperature;humidity
33404;BME280;19751;40.274;18.268;2022-08-03T00:01:51;100736.38;;;27.21;68.32
33404;BME280;19751;40.274;18.268;2022-08-03T00:04:17;100735.03;;;27.19;68.41
33404;BME280;19751;40.274;18.268;2022-08-03T00:06:42;100739.22;;;27.16;68.26
33404;BME280;19751;40.274;18.268;2022-08-03T00:09:08;100736.44;;;27.16;68.49
33404;BME280;19751;40.274;18.268;2022-08-03T00:11:34;100735.63;;;27.16;68.68
33404;BME280;19751;40.274;18.268;2022-08-03T00:14:04;100731.53;;;27.13;68.67
33404;BME280;19751;40.274;18.268;2022-08-03T00:16:30;100738.47;;;27.11;68.54
33404;BME280;19751;40.274;18.268;2022-08-03T00:18:55;100732.13;;;27.10;68.93
33404;BME280;19751;40.274;18.268;2022-08-03T00:21:21;100735.41;;;27.12;69.14
33404;BME280;19751;40.274;18.268;2022-08-03T00:23:47;100730.19;;;27.11;69.16
33404;BME280;19751;40.274;18.268;2022-08-03T00:26:12;100727.09;;;27.12;68.75
33404;BME280;19751;40.274;18.268;2022-08-03T00:28:38;100721.06;;;27.10;69.00
33404;BME280;19751;40.274;18.268;2022-08-03T00:31:03;100724.34;;;27.12;69.22
33404;BME280;19751;40.274;18.268;2022-08-03T00:33:29;100715.28;;;27.07;69.88
33404;BME280;19751;40.274;18.268;2022-08-03T00:35:54;100719.50;;;27.04;70.16
33404;BME280;19751;40.274;18.268;2022-08-03T00:38:20;100719.28;;;27.00;70.17
33404;BME280;19751;40.274;18.268;2022-08-03T00:40:45;100717.59;;;26.99;70.53
33404;BME280;19751;40.274;18.268;2022-08-03T00:43:11;100706.84;;;26.98;70.62
33404;BME280;19751;40.274;18.268;2022-08-03T00:45:41;100708.81;;;26.97;70.81
33404;BME280;19751;40.274;18.268;2022-08-03T00:48:07;100707.41;;;27.00;70.82
33404;BME280;19751;40.274;18.268;2022-08-03T00:50:36;100705.22;;;26.97;70.86
33404;BME280;19751;40.274;18.268;2022-08-03T00:53:04;100714.09;;;26.94;71.01
33404;BME280;19751;40.274;18.268;2022-08-03T00:55:31;100706.41;;;26.91;71.73
33404;BME280;19751;40.274;18.268;2022-08-03T00:57:56;100707.53;;;26.90;71.76
33404;BME280;19751;40.274;18.268;2022-08-03T01:00:25;100704.78;;;26.90;72.02
33404;BME280;19751;40.274;18.268;2022-08-03T01:02:51;100711.94;;;26.91;71.99
33404;BME280;19751;40.274;18.268;2022-08-03T01:05:18;100707.22;;;26.91;71.86
33404;BME280;19751;40.274;18.268;2022-08-03T01:10:27;100712.97;;;26.95;72.07
33404;BME280;19751;40.274;18.268;2022-08-03T01:18:17;100705.91;;;26.89;72.75
33404;BME280;19751;40.274;18.268;2022-08-03T01:20:47;100710.06;;;26.86;73.48
33404;BME280;19751;40.274;18.268;2022-08-03T01:31:30;100708.44;;;26.85;75.10
33404;BME280;19751;40.274;18.268;2022-08-03T01:33:59;100708.44;;;26.85;75.18
33404;BME280;19751;40.274;18.268;2022-08-03T01:36:34;100716.41;;;26.87;75.40
33404;BME280;19751;40.274;18.268;2022-08-03T01:39:01;100714.19;;;26.89;75.72
33404;BME280;19751;40.274;18.268;2022-08-03T01:41:37;100710.31;;;26.90;75.69
33404;BME280;19751;40.274;18.268;2022-08-03T01:44:07;100709.16;;;26.91;75.76
33404;BME280;19751;40.274;18.268;2022-08-03T01:46:33;100714.69;;;26.91;75.93
33404;BME280;19751;40.274;18.268;2022-08-03T01:49:02;100711.66;;;26.92;76.19
33404;BME280;19751;40.274;18.268;2022-08-03T01:51:31;100706.13;;;26.92;76.66
33404;BME280;19751;40.274;18.268;2022-08-03T01:53:58;100696.72;;;26.93;76.58
33404;BME280;19751;40.274;18.268;2022-08-03T01:56:25;100693.63;;;26.95;77.02
33404;BME280;19751;40.274;18.268;2022-08-03T01:58:53;100695.31;;;26.96;76.88
33404;BME280;19751;40.274;18.268;2022-08-03T02:01:20;100698.88;;;26.96;76.98
33404;BME280;19751;40.274;18.268;2022-08-03T02:03:48;100695.31;;;26.96;77.49
33404;BME280;19751;40.274;18.268;2022-08-03T02:06:14;100697.53;;;26.94;77.76
33404;BME280;19751;40.274;18.268;2022-08-03T02:08:43;100698.66;;;26.93;78.30
33404;BME280;19751;40.274;18.268;2022-08-03T02:11:10;100699.84;;;26.87;78.89
33404;BME280;19751;40.274;18.268;2022-08-03T02:13:37;100704.03;;;26.84;79.22
33404;BME280;19751;40.274;18.268;2022-08-03T02:16:03;100697.16;;;26.82;79.33
33404;BME280;19751;40.274;18.268;2022-08-03T02:18:30;100699.41;;;26.80;79.84
33404;BME280;19751;40.274;18.268;2022-08-03T02:20:59;100688.34;;;26.80;79.98
33404;BME280;19751;40.274;18.268;2022-08-03T02:23:25;100693.88;;;26.80;79.97
33404;BME280;19751;40.274;18.268;2022-08-03T02:25:55;100690.81;;;26.81;80.09
33404;BME280;19751;40.274;18.268;2022-08-03T02:28:27;100688.88;;;26.82;79.94
33404;BME280;19751;40.274;18.268;2022-08-03T02:30:54;100683.94;;;26.78;80.17
33404;BME280;19751;40.274;18.268;2022-08-03T02:33:27;100682.28;;;26.77;80.46
33404;BME280;19751;40.274;18.268;2022-08-03T02:35:55;100676.47;;;26.79;80.22
33404;BME280;19751;40.274;18.268;2022-08-03T02:38:26;100689.47;;;26.78;80.49
33404;BME280;19751;40.274;18.268;2022-08-03T02:40:54;100683.66;;;26.80;80.38
33404;BME280;19751;40.274;18.268;2022-08-03T02:43:22;100686.69;;;26.78;80.43
33404;BME280;19751;40.274;18.268;2022-08-03T02:45:49;100688.34;;;26.80;80.24
33404;BME280;19751;40.274;18.268;2022-08-03T02:48:27;100690.59;;;26.77;80.27
33404;BME280;19751;40.274;18.268;2022-08-03T02:50:57;100680.13;;;26.74;80.28
33404;BME280;19751;40.274;18.268;2022-08-03T02:53:25;100683.50;;;26.71;80.26
33404;BME280;19751;40.274;18.268;2022-08-03T02:55:51;100680.44;;;26.73;80.31
33404;BME280;19751;40.274;18.268;2022-08-03T02:58:19;100681.56;;;26.72;80.19
33404;BME280;19751;40.274;18.268;2022-08-03T03:00:46;100683.78;;;26.70;80.46
33404;BME280;19751;40.274;18.268;2022-08-03T03:03:13;100679.97;;;26.66;80.55
33404;BME280;19751;40.274;18.268;2022-08-03T03:05:39;100681.41;;;26.63;80.60
33404;BME280;19751;40.274;18.268;2022-08-03T03:08:07;100673.94;;;26.64;80.95
33404;BME280;19751;40.274;18.268;2022-08-03T03:10:33;100676.16;;;26.62;80.91
33404;BME280;19751;40.274;18.268;2022-08-03T03:13:01;100677.28;;;26.61;81.00
33404;BME280;19751;40.274;18.268;2022-08-03T03:15:28;100676.16;;;26.62;80.88
33404;BME280;19751;40.274;18.268;2022-08-03T03:17:55;100682.31;;;26.59;80.99
33404;BME280;19751;40.274;18.268;2022-08-03T03:20:22;100686.47;;;26.56;81.14
33404;BME280;19751;40.274;18.268;2022-08-03T03:22:49;100680.41;;;26.54;80.86
33404;BME280;19751;40.274;18.268;2022-08-03T03:25:15;100690.13;;;26.51;80.87
33404;BME280;19751;40.274;18.268;2022-08-03T03:27:41;100687.66;;;26.50;81.07
33404;BME280;19751;40.274;18.268;2022-08-03T03:30:07;100690.72;;;26.48;81.36
33404;BME280;19751;40.274;18.268;2022-08-03T03:32:33;100694.84;;;26.51;80.87
33404;BME280;19751;40.274;18.268;2022-08-03T03:35:01;100693.72;;;26.52;81.00
33404;BME280;19751;40.274;18.268;2022-08-03T03:37:26;100692.91;;;26.51;80.85
33404;BME280;19751;40.274;18.268;2022-08-03T03:39:53;100690.72;;;26.48;80.68
33404;BME280;19751;40.274;18.268;2022-08-03T03:42:19;100692.66;;;26.48;80.50
33404;BME280;19751;40.274;18.268;2022-08-03T03:44:45;100690.72;;;26.48;80.62
33404;BME280;19751;40.274;18.268;2022-08-03T03:47:11;100697.09;;;26.44;80.74
33404;BME280;19751;40.274;18.268;2022-08-03T03:49:38;100695.47;;;26.43;80.85
33404;BME280;19751;40.274;18.268;2022-08-03T03:52:04;100709.81;;;26.45;80.96
33404;BME280;19751;40.274;18.268;2022-08-03T03:54:43;100692.44;;;26.44;80.41
33404;BME280;19751;40.274;18.268;2022-08-03T03:57:10;100708.75;;;26.41;80.80
33404;BME280;19751;40.274;18.268;2022-08-03T03:59:39;100709.88;;;26.40;80.94
33404;BME280;19751;40.274;18.268;2022-08-03T04:02:09;100713.16;;;26.42;80.59
33404;BME280;19751;40.274;18.268;2022-08-03T04:04:35;100711.22;;;26.42;80.76
33404;BME280;19751;40.274;18.268;2022-08-03T04:07:22;100700.19;;;26.42;80.86
33404;BME280;19751;40.274;18.268;2022-08-03T04:10:13;100711.50;;;26.41;80.56
33404;BME280;19751;40.274;18.268;2022-08-03T04:13:01;100712.03;;;26.43;80.67
33404;BME280;19751;40.274;18.268;2022-08-03T04:15:29;100709.00;;;26.44;80.56
33404;BME280;19751;40.274;18.268;2022-08-03T04:17:57;100713.13;;;26.47;80.79
33404;BME280;19751;40.274;18.268;2022-08-03T04:20:25;100705.34;;;26.49;80.43
33404;BME280;19751;40.274;18.268;2022-08-03T04:22:52;100722.47;;;26.51;80.36
33404;BME280;19751;40.274;18.268;2022-08-03T04:25:44;100723.28;;;26.51;80.31
33404;BME280;19751;40.274;18.268;2022-08-03T04:28:11;100723.28;;;26.51;80.65
33404;BME280;19751;40.274;18.268;2022-08-03T04:30:38;100719.09;;;26.54;80.78
33404;BME280;19751;40.274;18.268;2022-08-03T04:33:12;100722.91;;;26.58;80.50
33404;BME280;19751;40.274;18.268;2022-08-03T04:35:40;100734.47;;;26.60;80.72
33404;BME280;19751;40.274;18.268;2022-08-03T04:38:08;100722.84;;;26.63;80.71
33404;BME280;19751;40.274;18.268;2022-08-03T04:40:40;100717.84;;;26.65;81.05
33404;BME280;19751;40.274;18.268;2022-08-03T04:43:08;100733.28;;;26.66;81.23
33404;BME280;19751;40.274;18.268;2022-08-03T04:45:35;100730.25;;;26.68;81.13
33404;BME280;19751;40.274;18.268;2022-08-03T04:48:01;100738.44;;;26.73;81.21
33404;BME280;19751;40.274;18.268;2022-08-03T04:50:27;100737.06;;;26.75;81.18
33404;BME280;19751;40.274;18.268;2022-08-03T04:52:53;100736.44;;;26.78;81.30
33404;BME280;19751;40.274;18.268;2022-08-03T04:55:30;100735.84;;;26.82;81.32
33404;BME280;19751;40.274;18.268;2022-08-03T04:57:57;100743.53;;;26.85;81.05
33404;BME280;19751;40.274;18.268;2022-08-03T05:00:23;100737.44;;;26.88;81.24
33404;BME280;19751;40.274;18.268;2022-08-03T05:02:49;100735.72;;;26.92;80.81
33404;BME280;19751;40.274;18.268;2022-08-03T05:05:16;100740.63;;;26.95;80.95
33404;BME280;19751;40.274;18.268;2022-08-03T05:07:42;100732.88;;;26.97;80.62
33404;BME280;19751;40.274;18.268;2022-08-03T05:10:10;100740.75;;;27.03;80.36
33404;BME280;19751;40.274;18.268;2022-08-03T05:12:36;100735.78;;;27.06;80.21
33404;BME280;19751;40.274;18.268;2022-08-03T05:15:01;100742.66;;;27.08;80.43
33404;BME280;19751;40.274;18.268;2022-08-03T05:17:27;100737.06;;;27.13;80.02
33404;BME280;19751;40.274;18.268;2022-08-03T05:19:53;100735.63;;;27.16;79.30
33404;BME280;19751;40.274;18.268;2022-08-03T05:22:20;100735.25;;;27.22;78.99
33404;BME280;19751;40.274;18.268;2022-08-03T05:24:45;100737.13;;;27.27;78.24
33404;BME280;19751;40.274;18.268;2022-08-03T05:27:11;100740.31;;;27.34;77.95
33404;BME280;19751;40.274;18.268;2022-08-03T05:29:42;100751.31;;;27.39;76.54
33404;BME280;19751;40.274;18.268;2022-08-03T05:32:07;100743.72;;;27.45;76.03
33404;BME280;19751;40.274;18.268;2022-08-03T05:34:33;100748.06;;;27.51;75.13
33404;BME280;19751;40.274;18.268;2022-08-03T05:36:58;100751.06;;;27.55;73.63
33404;BME280;19751;40.274;18.268;2022-08-03T05:39:24;100753.72;;;27.60;72.33
33404;BME280;19751;40.274;18.268;2022-08-03T05:41:49;100755.56;;;27.64;71.45
33404;BME280;19751;40.274;18.268;2022-08-03T05:44:15;100768.81;;;27.67;69.72
33404;BME280;19751;40.274;18.268;2022-08-03T05:46:40;100763.50;;;27.71;68.36
33404;BME280;19751;40.274;18.268;2022-08-03T05:49:06;100769.28;;;27.74;65.81
33404;BME280;19751;40.274;18.268;2022-08-03T05:51:31;100771.13;;;27.79;64.29
33404;BME280;19751;40.274;18.268;2022-08-03T05:53:57;100771.84;;;27.85;62.99
33404;BME280;19751;40.274;18.268;2022-08-03T05:56:23;100777.59;;;27.88;60.24
33404;BME280;19751;40.274;18.268;2022-08-03T05:58:49;100779.78;;;27.91;58.56
33404;BME280;19751;40.274;18.268;2022-08-03T06:01:16;100776.38;;;27.94;56.75
33404;BME280;19751;40.274;18.268;2022-08-03T06:03:42;100789.00;;;28.00;55.91
33404;BME280;19751;40.274;18.268;2022-08-03T06:06:07;100788.09;;;28.05;55.48
33404;BME280;19751;40.274;18.268;2022-08-03T06:08:33;100797.44;;;28.09;55.81
33404;BME280;19751;40.274;18.268;2022-08-03T06:10:59;100794.56;;;28.14;55.61
33404;BME280;19751;40.274;18.268;2022-08-03T06:13:25;100794.16;;;28.21;54.69
33404;BME280;19751;40.274;18.268;2022-08-03T06:15:50;100800.72;;;28.25;52.14
33404;BME280;19751;40.274;18.268;2022-08-03T06:18:16;100797.31;;;28.28;52.16
33404;BME280;19751;40.274;18.268;2022-08-03T06:20:41;100797.53;;;28.32;52.79
33404;BME280;19751;40.274;18.268;2022-08-03T06:23:07;100800.53;;;28.35;52.82
33404;BME280;19751;40.274;18.268;2022-08-03T06:25:46;100805.47;;;28.38;51.74
33404;BME280;19751;40.274;18.268;2022-08-03T06:28:12;100805.69;;;28.42;50.95
33404;BME280;19751;40.274;18.268;2022-08-03T06:30:39;100805.91;;;28.45;49.86
33404;BME280;19751;40.274;18.268;2022-08-03T06:33:04;100808.03;;;28.48;49.23
33404;BME280;19751;40.274;18.268;2022-08-03T06:35:30;100811.00;;;28.52;48.59
33404;BME280;19751;40.274;18.268;2022-08-03T06:37:55;100799.94;;;28.52;47.58
33404;BME280;19751;40.274;18.268;2022-08-03T06:40:22;100807.63;;;28.55;47.46
33404;BME280;19751;40.274;18.268;2022-08-03T06:42:56;100810.63;;;28.59;47.92
33404;BME280;19751;40.274;18.268;2022-08-03T06:45:22;100808.88;;;28.63;47.93
33404;BME280;19751;40.274;18.268;2022-08-03T06:47:59;100815.13;;;28.68;47.48
33404;BME280;19751;40.274;18.268;2022-08-03T06:50:26;100815.84;;;28.74;47.56
33404;BME280;19751;40.274;18.268;2022-08-03T06:52:51;100818.28;;;28.76;46.71
33404;BME280;19751;40.274;18.268;2022-08-03T06:55:17;100819.94;;;28.77;46.98
33404;BME280;19751;40.274;18.268;2022-08-03T06:57:42;100820.13;;;28.80;47.03
33404;BME280;19751;40.274;18.268;2022-08-03T07:00:10;100817.56;;;28.84;46.61
33404;BME280;19751;40.274;18.268;2022-08-03T07:02:37;100817.78;;;28.87;46.16
33404;BME280;19751;40.274;18.268;2022-08-03T07:05:02;100809.94;;;28.89;46.09
33404;BME280;19751;40.274;18.268;2022-08-03T07:07:28;100820.09;;;28.94;46.08
33404;BME280;19751;40.274;18.268;2022-08-03T07:09:54;100818.38;;;28.98;46.24
33404;BME280;19751;40.274;18.268;2022-08-03T07:12:19;100812.22;;;29.01;46.29
33404;BME280;19751;40.274;18.268;2022-08-03T07:14:44;100819.59;;;29.06;45.92
33404;BME280;19751;40.274;18.268;2022-08-03T07:17:10;100823.06;;;29.11;46.02
33404;BME280;19751;40.274;18.268;2022-08-03T07:19:36;100823.59;;;29.13;46.55
33404;BME280;19751;40.274;18.268;2022-08-03T07:22:01;100831.09;;;29.13;46.98
33404;BME280;19751;40.274;18.268;2022-08-03T07:24:28;100820.22;;;29.16;47.10
33404;BME280;19751;40.274;18.268;2022-08-03T07:26:53;100829.03;;;29.18;46.87
33404;BME280;19751;40.274;18.268;2022-08-03T07:29:19;100827.06;;;29.19;47.06
33404;BME280;19751;40.274;18.268;2022-08-03T07:31:44;100833.94;;;29.21;46.54
33404;BME280;19751;40.274;18.268;2022-08-03T07:34:10;100817.63;;;29.20;46.28
33404;BME280;19751;40.274;18.268;2022-08-03T07:36:36;100825.09;;;29.19;45.73
33404;BME280;19751;40.274;18.268;2022-08-03T07:39:01;100825.31;;;29.23;46.01
33404;BME280;19751;40.274;18.268;2022-08-03T07:41:27;100833.00;;;29.26;45.64
33404;BME280;19751;40.274;18.268;2022-08-03T07:43:52;100833.53;;;29.28;45.66
33404;BME280;19751;40.274;18.268;2022-08-03T07:46:26;100832.88;;;29.31;44.96
33404;BME280;19751;40.274;18.268;2022-08-03T07:48:51;100839.78;;;29.34;45.16
33404;BME280;19751;40.274;18.268;2022-08-03T07:51:17;100837.19;;;29.37;44.96
33404;BME280;19751;40.274;18.268;2022-08-03T07:53:42;100842.94;;;29.41;44.61
33404;BME280;19751;40.274;18.268;2022-08-03T07:56:08;100841.47;;;29.43;44.26
33404;BME280;19751;40.274;18.268;2022-08-03T07:58:34;100843.97;;;29.45;44.16
33404;BME280;19751;40.274;18.268;2022-08-03T08:01:00;100843.97;;;29.45;43.28
33404;BME280;19751;40.274;18.268;2022-08-03T08:03:26;100844.66;;;29.51;43.45
33404;BME280;19751;40.274;18.268;2022-08-03T08:05:51;100844.50;;;29.56;42.16
33404;BME280;19751;40.274;18.268;2022-08-03T08:08:18;100852.56;;;29.57;42.06
33404;BME280;19751;40.274;18.268;2022-08-03T08:10:45;100844.75;;;29.59;42.17
33404;BME280;19751;40.274;18.268;2022-08-03T08:13:10;100858.28;;;29.61;42.34
33404;BME280;19751;40.274;18.268;2022-08-03T08:15:36;100854.91;;;29.64;41.30
33404;BME280;19751;40.274;18.268;2022-08-03T08:18:01;100851.31;;;29.63;41.46
33404;BME280;19751;40.274;18.268;2022-08-03T08:20:32;100859.50;;;29.68;41.50
33404;BME280;19751;40.274;18.268;2022-08-03T08:23:00;100850.06;;;29.69;40.35
33404;BME280;19751;40.274;18.268;2022-08-03T08:25:26;100857.25;;;29.70;40.67
33404;BME280;19751;40.274;18.268;2022-08-03T08:27:52;100867.41;;;29.75;40.50
33404;BME280;19751;40.274;18.268;2022-08-03T08:30:20;100858.13;;;29.80;40.83
33404;BME280;19751;40.274;18.268;2022-08-03T08:32:47;100864.34;;;29.85;41.09
33404;BME280;19751;40.274;18.268;2022-08-03T08:35:13;100865.16;;;29.86;39.84
33404;BME280;19751;40.274;18.268;2022-08-03T08:37:39;100872.56;;;29.90;39.89
33404;BME280;19751;40.274;18.268;2022-08-03T08:40:06;100874.06;;;29.96;39.44
33404;BME280;19751;40.274;18.268;2022-08-03T08:42:33;100874.88;;;29.97;37.88
33404;BME280;19751;40.274;18.268;2022-08-03T08:45:01;100869.72;;;30.04;38.08
33404;BME280;19751;40.274;18.268;2022-08-03T08:47:31;100881.84;;;30.08;37.57
33404;BME280;19751;40.274;18.268;2022-08-03T08:49:57;100878.25;;;30.08;36.52
33404;BME280;19751;40.274;18.268;2022-08-03T08:52:39;100880.06;;;30.12;36.21
33404;BME280;19751;40.274;18.268;2022-08-03T08:55:08;100877.50;;;30.16;36.54
33404;BME280;19751;40.274;18.268;2022-08-03T08:57:37;100878.81;;;30.18;36.21
33404;BME280;19751;40.274;18.268;2022-08-03T09:00:05;100873.44;;;30.22;35.79
33404;BME280;19751;40.274;18.268;2022-08-03T09:02:33;100879.38;;;30.29;35.74
33404;BME280;19751;40.274;18.268;2022-08-03T09:04:59;100878.41;;;30.34;36.02
33404;BME280;19751;40.274;18.268;2022-08-03T09:07:26;100882.19;;;30.38;36.92
33404;BME280;19751;40.274;18.268;2022-08-03T09:09:52;100876.81;;;30.41;36.38
33404;BME280;19751;40.274;18.268;2022-08-03T09:12:18;100881.03;;;30.39;36.92
33404;BME280;19751;40.274;18.268;2022-08-03T09:14:43;100881.03;;;30.39;36.42
33404;BME280;19751;40.274;18.268;2022-08-03T09:17:09;100883.19;;;30.42;36.88
33404;BME280;19751;40.274;18.268;2022-08-03T09:19:35;100885.34;;;30.45;36.43
33404;BME280;19751;40.274;18.268;2022-08-03T09:24:34;100886.00;;;30.51;35.03
33404;BME280;19751;40.274;18.268;2022-08-03T09:27:00;100880.63;;;30.54;35.10
33404;BME280;19751;40.274;18.268;2022-08-03T09:29:31;100889.16;;;30.58;36.26
33404;BME280;19751;40.274;18.268;2022-08-03T09:32:02;100887.19;;;30.58;36.06
33404;BME280;19751;40.274;18.268;2022-08-03T09:34:28;100892.13;;;30.61;35.57
33404;BME280;19751;40.274;18.268;2022-08-03T09:36:54;100893.41;;;30.64;35.76
33404;BME280;19751;40.274;18.268;2022-08-03T09:39:24;100889.53;;;30.65;35.54
33404;BME280;19751;40.274;18.268;2022-08-03T09:42:10;100894.22;;;30.64;35.73
33404;BME280;19751;40.274;18.268;2022-08-03T09:44:41;100887.22;;;30.67;36.52
33404;BME280;19751;40.274;18.268;2022-08-03T09:47:08;100881.66;;;30.67;36.30
33404;BME280;19751;40.274;18.268;2022-08-03T09:49:37;100887.72;;;30.69;36.54
33404;BME280;19751;40.274;18.268;2022-08-03T09:52:17;100883.47;;;30.71;36.38
33404;BME280;19751;40.274;18.268;2022-08-03T09:54:50;100880.38;;;30.73;36.56
33404;BME280;19751;40.274;18.268;2022-08-03T09:57:22;100880.09;;;30.75;37.03
33404;BME280;19751;40.274;18.268;2022-08-03T09:59:49;100875.34;;;30.75;37.35
33404;BME280;19751;40.274;18.268;2022-08-03T10:02:25;100885.81;;;30.78;37.50
33404;BME280;19751;40.274;18.268;2022-08-03T10:04:52;100887.13;;;30.81;37.36
33404;BME280;19751;40.274;18.268;2022-08-03T10:07:23;100883.72;;;30.84;36.75
33404;BME280;19751;40.274;18.268;2022-08-03T10:10:00;100877.34;;;30.83;36.86
33404;BME280;19751;40.274;18.268;2022-08-03T10:12:26;100886.16;;;30.85;37.57
33404;BME280;19751;40.274;18.268;2022-08-03T10:14:53;100875.38;;;30.84;37.51
33404;BME280;19751;40.274;18.268;2022-08-03T10:17:20;100878.66;;;30.86;37.60
33404;BME280;19751;40.274;18.268;2022-08-03T10:19:46;100879.66;;;30.90;37.58
33404;BME280;19751;40.274;18.268;2022-08-03T10:22:23;100885.69;;;30.92;37.12
33404;BME280;19751;40.274;18.268;2022-08-03T10:27:36;100872.94;;;30.91;37.74
33404;BME280;19751;40.274;18.268;2022-08-03T10:30:03;100880.31;;;30.95;37.95
33404;BME280;19751;40.274;18.268;2022-08-03T10:32:43;100877.72;;;30.99;38.35
33404;BME280;19751;40.274;18.268;2022-08-03T10:35:19;100871.00;;;31.00;38.20
33404;BME280;19751;40.274;18.268;2022-08-03T10:37:57;100874.28;;;31.02;38.35
33404;BME280;19751;40.274;18.268;2022-08-03T10:40:26;100872.81;;;31.05;38.45
33404;BME280;19751;40.274;18.268;2022-08-03T10:42:55;100876.22;;;31.10;38.67
33404;BME280;19751;40.274;18.268;2022-08-03T10:45:23;100870.84;;;31.14;38.72
33404;BME280;19751;40.274;18.268;2022-08-03T10:47:51;100879.53;;;31.21;38.43
33404;BME280;19751;40.274;18.268;2022-08-03T10:50:18;100872.00;;;31.22;37.83
33404;BME280;19751;40.274;18.268;2022-08-03T10:52:55;100871.84;;;31.27;37.72
33404;BME280;19751;40.274;18.268;2022-08-03T10:55:41;100874.00;;;31.30;37.74
33404;BME280;19751;40.274;18.268;2022-08-03T10:58:48;100880.41;;;31.30;37.98
33404;BME280;19751;40.274;18.268;2022-08-03T11:01:14;100876.50;;;31.31;37.79
33404;BME280;19751;40.274;18.268;2022-08-03T11:08:46;100865.66;;;31.38;37.97
33404;BME280;19751;40.274;18.268;2022-08-03T11:14:15;100875.00;;;31.51;36.20
33404;BME280;19751;40.274;18.268;2022-08-03T11:16:49;100856.19;;;31.57;36.44
33404;BME280;19751;40.274;18.268;2022-08-03T11:19:20;100868.63;;;31.59;35.98
33404;BME280;19751;40.274;18.268;2022-08-03T11:21:53;100873.06;;;31.60;35.12
33404;BME280;19751;40.274;18.268;2022-08-03T11:30:02;100859.13;;;31.69;35.13
33404;BME280;19751;40.274;18.268;2022-08-03T11:35:25;100857.16;;;31.78;34.88
33404;BME280;19751;40.274;18.268;2022-08-03T11:43:01;100850.59;;;31.91;34.37
33404;BME280;19751;40.274;18.268;2022-08-03T11:45:26;100849.94;;;31.95;34.49
33404;BME280;19751;40.274;18.268;2022-08-03T11:47:54;100845.34;;;31.99;33.91
33404;BME280;19751;40.274;18.268;2022-08-03T11:50:40;100848.41;;;32.06;33.15
33404;BME280;19751;40.274;18.268;2022-08-03T11:53:13;100850.72;;;32.12;33.43
33404;BME280;19751;40.274;18.268;2022-08-03T11:55:39;100848.91;;;32.16;33.58
33404;BME280;19751;40.274;18.268;2022-08-03T11:58:07;100849.41;;;32.18;33.71
33404;BME280;19751;40.274;18.268;2022-08-03T12:00:32;100842.66;;;32.20;33.12
33404;BME280;19751;40.274;18.268;2022-08-03T12:03:04;100845.44;;;32.20;33.04
33404;BME280;19751;40.274;18.268;2022-08-03T12:07:59;100842.78;;;32.32;32.43
33404;BME280;19751;40.274;18.268;2022-08-03T12:10:24;100852.31;;;32.31;32.54
33404;BME280;19751;40.274;18.268;2022-08-03T12:12:57;100843.75;;;32.36;32.13
33404;BME280;19751;40.274;18.268;2022-08-03T12:15:28;100849.31;;;32.36;31.36
33404;BME280;19751;40.274;18.268;2022-08-03T12:17:55;100850.47;;;32.35;31.11
33404;BME280;19751;40.274;18.268;2022-08-03T12:20:23;100852.13;;;32.36;31.21
33404;BME280;19751;40.274;18.268;2022-08-03T12:22:49;100843.41;;;32.37;31.72
33404;BME280;19751;40.274;18.268;2022-08-03T12:25:23;100849.78;;;32.38;32.09
33404;BME280;19751;40.274;18.268;2022-08-03T12:27:49;100847.34;;;32.36;32.21
33404;BME280;19751;40.274;18.268;2022-08-03T12:30:16;100846.72;;;32.39;31.88
33404;BME280;19751;40.274;18.268;2022-08-03T12:32:42;100852.94;;;32.45;32.14
33404;BME280;19751;40.274;18.268;2022-08-03T12:35:08;100849.94;;;32.50;31.76
33404;BME280;19751;40.274;18.268;2022-08-03T12:37:35;100842.75;;;32.49;32.42
33404;BME280;19751;40.274;18.268;2022-08-03T12:40:02;100847.66;;;32.52;32.98
33404;BME280;19751;40.274;18.268;2022-08-03T12:42:31;100835.81;;;32.55;32.42
33404;BME280;19751;40.274;18.268;2022-08-03T12:44:56;100841.53;;;32.59;31.97
33404;BME280;19751;40.274;18.268;2022-08-03T12:47:22;100843.81;;;32.65;31.65
33404;BME280;19751;40.274;18.268;2022-08-03T12:49:49;100834.28;;;32.66;31.51
33404;BME280;19751;40.274;18.268;2022-08-03T12:52:16;100838.84;;;32.71;32.23
33404;BME280;19751;40.274;18.268;2022-08-03T12:54:56;100834.91;;;32.72;32.21
33404;BME280;19751;40.274;18.268;2022-08-03T12:57:22;100835.03;;;32.76;32.36
33404;BME280;19751;40.274;18.268;2022-08-03T12:59:47;100832.75;;;32.78;32.29
33404;BME280;19751;40.274;18.268;2022-08-03T13:02:17;100823.50;;;32.86;32.88
33404;BME280;19751;40.274;18.268;2022-08-03T13:04:44;100826.75;;;32.88;33.77
33404;BME280;19751;40.274;18.268;2022-08-03T13:07:11;100832.84;;;32.90;33.73
33404;BME280;19751;40.274;18.268;2022-08-03T13:09:48;100822.84;;;32.89;33.68
33404;BME280;19751;40.274;18.268;2022-08-03T13:12:16;100820.53;;;32.91;33.17
33404;BME280;19751;40.274;18.268;2022-08-03T13:14:43;100825.28;;;32.90;32.75
33404;BME280;19751;40.274;18.268;2022-08-03T13:17:09;100824.97;;;32.92;32.78
33404;BME280;19751;40.274;18.268;2022-08-03T13:19:36;100827.59;;;32.97;32.62
33404;BME280;19751;40.274;18.268;2022-08-03T13:22:15;100822.47;;;32.99;31.86
33404;BME280;19751;40.274;18.268;2022-08-03T13:24:43;100821.16;;;32.97;31.00
33404;BME280;19751;40.274;18.268;2022-08-03T13:27:09;100813.28;;;32.99;31.00
33404;BME280;19751;40.274;18.268;2022-08-03T13:29:34;100815.19;;;33.07;30.93
33404;BME280;19751;40.274;18.268;2022-08-03T13:32:01;100818.25;;;33.14;30.96